Overview Statistics Trail Chart Weather Telemetry Raw packets
 

This is the latest recevied weather packets stored in our database for station/object EA3CH. If no packets are shown the sender has not sent any weather packets the latest 10 day(s).

<< 13 14 15 16 17 18 19 >>
Time Temp. Humidity Pressure Rain* Wind** Luminosity Snow
1788265806 29.44° C 48% 1021.6 hPa 0 mm - 0 W/m² -
1788265805 28.89° C 58% 1021.8 hPa 0 mm - 0 W/m² -
1788264903 28.33° C 58% 1021.9 hPa 0 mm - 0 W/m² -
1788264025 28.89° C 57% 1021.8 hPa 0 mm - 0 W/m² -
1788263104 28.33° C 60% 1022.1 hPa 0 mm - 0 W/m² -
1788262219 28.33° C 52% 1021.8 hPa 0 mm - 0 W/m² -
1788262219 28.33° C 61% 1022.1 hPa 0 mm - 0 W/m² -
1788261304 28.89° C 61% 1022.1 hPa 0 mm - 0 W/m² -
1788260407 27.78° C 54% 1021.8 hPa 0 mm - 0 W/m² -
1788260404 28.33° C 63% 1022 hPa 0 mm - 0 W/m² -
1788259506 28.33° C 54% 1021.9 hPa 0 mm - 0 W/m² -
1788259504 27.78° C 63% 1022 hPa 0 mm - 0 W/m² -
1788258606 28.33° C 55% 1021.8 hPa 0 mm - 0 W/m² -
1788258603 28.33° C 64% 1022.1 hPa 0 mm - 0 W/m² -
1788257704 28.33° C 63% 1022 hPa 0 mm - 0 W/m² -
1788256804 27.78° C 63% 1021.9 hPa 0 mm - 0 W/m² -
1788255904 27.22° C 65% 1021.9 hPa 0 mm - 0 W/m² -
1788255006 26.11° C 63% 1021.6 hPa 0 mm - 0 W/m² -
1788255004 26.67° C 70% 1021.8 hPa 0 mm - 0 W/m² -
1788254106 26.11° C 64% 1021.7 hPa 0 mm - 0 W/m² -
1788254104 25.56° C 71% 1021.8 hPa 0 mm - 0 W/m² -
1788253206 25.56° C 65% 1021.5 hPa 0 mm - 0 W/m² -
1788253204 26.11° C 72% 1021.7 hPa 0 mm - 0 W/m² -
1788252306 25° C 67% 1021.5 hPa 0 mm - 0 W/m² -
1788252304 25° C 74% 1021.7 hPa 0 mm - 0 W/m² -

* Rain latest hour (hover to see other rain measurements)
** Current wind speed in m/s (hover to see current wind gust speed)